Time;durP1;ratioP1;P1;durP2;ratioP2;P2;SDS_P1;SDS_P2;PMS_P1;PMS_P2;Temp;Humidity;BMP_temperature;BMP_pressure;BME280_temperature;BME280_humidity;BME280_pressure;Samples;Min_cycle;Max_cycle;Signal;HPM_P1;HPM_P2
2022/03/10 00:01:34;;;;;;;108.60;46.10;;;;;;;-0.29;66.41;101451.48;52642;1271;1016903;-61
2022/03/10 00:04:06;;;;;;;105.60;42.60;;;;;;;-0.28;66.62;101452.90;52703;1271;1016278;-61
2022/03/10 00:06:37;;;;;;;100.10;40.70;;;;;;;-0.28;66.74;101458.41;52673;1271;1018827;-61
2022/03/10 00:09:10;;;;;;;98.90;41.10;;;;;;;-0.27;66.92;101455.36;52523;1271;1016405;-61
2022/03/10 00:11:42;;;;;;;101.80;39.70;;;;;;;-0.25;66.85;101455.77;52697;1271;1016381;-61
2022/03/10 00:14:14;;;;;;;90.30;38.60;;;;;;;-0.22;66.81;101458.14;52671;1271;1017367;-61
2022/03/10 00:16:46;;;;;;;90.70;39.30;;;;;;;-0.20;67.04;101459.27;52740;1271;1017101;-60
2022/03/10 00:19:18;;;;;;;91.10;36.70;;;;;;;-0.18;67.19;101460.92;52672;1271;1016701;-60
2022/03/10 00:21:51;;;;;;;95.80;39.60;;;;;;;-0.17;67.00;101457.96;52732;1271;1016191;-59
2022/03/10 00:24:23;;;;;;;92.00;40.00;;;;;;;-0.15;67.55;101459.16;52734;1271;1018032;-60
2022/03/10 00:26:55;;;;;;;86.10;37.80;;;;;;;-0.13;67.16;101463.27;52642;1271;1016291;-61
2022/03/10 00:29:28;;;;;;;90.90;38.40;;;;;;;-0.10;67.13;101465.40;52711;1271;1016567;-61
2022/03/10 00:32:01;;;;;;;84.10;35.50;;;;;;;-0.09;67.43;101467.06;52679;1271;1016145;-60
2022/03/10 00:34:33;;;;;;;85.10;36.30;;;;;;;-0.07;67.80;101473.44;52765;1271;1016682;-61
2022/03/10 00:37:05;;;;;;;83.70;34.40;;;;;;;-0.04;67.91;101476.53;52734;1271;1016036;-61
2022/03/10 00:39:37;;;;;;;83.70;38.40;;;;;;;-0.01;68.62;101478.76;52617;1271;1016572;-62
2022/03/10 00:42:09;;;;;;;81.90;39.10;;;;;;;0.04;68.78;101479.11;52670;1271;1016272;-61
2022/03/10 00:44:41;;;;;;;81.20;36.40;;;;;;;0.07;69.03;101482.04;52672;1271;1016585;-61
2022/03/10 00:47:13;;;;;;;80.80;33.20;;;;;;;0.10;69.32;101479.09;52761;1271;1016361;-61
2022/03/10 00:49:45;;;;;;;76.90;33.10;;;;;;;0.12;69.39;101486.33;52619;1271;1016081;-62
2022/03/10 00:52:16;;;;;;;79.10;34.70;;;;;;;0.15;68.92;101487.92;52694;1271;1016526;-62
2022/03/10 00:54:48;;;;;;;73.80;32.40;;;;;;;0.17;68.99;101494.20;52717;1271;1016470;-60
2022/03/10 00:57:21;;;;;;;77.00;32.60;;;;;;;0.21;68.65;101489.80;52557;1272;1016302;-63
2022/03/10 00:59:53;;;;;;;69.10;30.90;;;;;;;0.23;68.77;101487.92;52583;1271;1016329;-62
2022/03/10 01:02:24;;;;;;;74.00;30.30;;;;;;;0.28;69.66;101485.52;52603;1272;1016681;-61
2022/03/10 01:04:56;;;;;;;73.20;30.70;;;;;;;0.37;70.00;101491.17;52656;1271;1016694;-61
2022/03/10 01:07:28;;;;;;;87.50;34.30;;;;;;;0.44;70.05;101491.55;52650;1271;1016280;-61
2022/03/10 01:10:00;;;;;;;74.70;30.90;;;;;;;0.51;70.25;101494.20;52671;1271;1018642;-61
2022/03/10 01:12:32;;;;;;;70.10;28.60;;;;;;;0.58;70.47;101496.14;52652;1271;1016170;-61
2022/03/10 01:15:05;;;;;;;66.60;28.30;;;;;;;0.64;70.46;101499.73;52656;1272;1019131;-61
2022/03/10 01:17:36;;;;;;;72.60;32.50;;;;;;;0.71;70.64;101503.54;52620;1271;1015993;-61
2022/03/10 01:20:10;;;;;;;70.60;29.70;;;;;;;0.76;70.57;101503.02;52621;1271;1016413;-61
2022/03/10 01:22:43;;;;;;;75.30;32.00;;;;;;;0.82;71.12;101506.99;52796;1271;1016484;-62
2022/03/10 01:25:16;;;;;;;70.70;28.70;;;;;;;0.87;71.35;101505.70;52690;1271;1017956;-61
2022/03/10 01:27:48;;;;;;;68.90;28.20;;;;;;;0.94;71.35;101507.79;52574;1271;1019077;-61
2022/03/10 01:30:21;;;;;;;69.20;29.80;;;;;;;0.99;71.30;101508.67;52670;1272;1017195;-60
2022/03/10 01:32:53;;;;;;;77.20;29.80;;;;;;;1.05;71.16;101509.34;52675;1272;1015939;-60
2022/03/10 01:35:26;;;;;;;70.50;30.50;;;;;;;1.11;71.30;101509.14;52656;1271;1016683;-61
2022/03/10 01:37:57;;;;;;;67.00;27.50;;;;;;;1.17;71.79;101515.23;52565;1271;1016577;-61
2022/03/10 01:40:30;;;;;;;67.90;28.30;;;;;;;1.22;71.48;101509.60;52666;1272;1016664;-61
2022/03/10 01:43:02;;;;;;;65.10;30.70;;;;;;;1.25;71.64;101513.46;52723;1272;1016439;-61
2022/03/10 01:45:34;;;;;;;68.50;29.40;;;;;;;1.29;71.84;101520.09;52647;1272;1018076;-61
2022/03/10 01:48:06;;;;;;;67.20;28.20;;;;;;;1.32;71.89;101516.57;52705;1273;1016711;-60
2022/03/10 01:50:38;;;;;;;68.60;29.80;;;;;;;1.34;71.77;101518.46;52585;1271;1016397;-60
2022/03/10 01:53:10;;;;;;;65.30;28.40;;;;;;;1.36;71.75;101519.88;52599;1271;1016721;-60
2022/03/10 01:55:42;;;;;;;74.60;30.00;;;;;;;1.38;71.62;101521.47;52642;1272;1016483;-59
2022/03/10 01:58:15;;;;;;;66.40;27.30;;;;;;;1.39;71.89;101522.27;52600;1271;1016746;-60
2022/03/10 02:00:47;;;;;;;74.40;29.60;;;;;;;1.40;72.05;101521.01;52671;1271;1016362;-61
2022/03/10 02:03:18;;;;;;;65.70;30.60;;;;;;;1.40;71.94;101522.12;52610;1271;1016167;-62
2022/03/10 02:05:50;;;;;;;69.70;28.60;;;;;;;1.39;71.85;101519.75;52572;1271;1016788;-61
2022/03/10 02:11:12;;;;;;;59.60;28.40;;;;;;;1.35;71.47;101526.49;52592;1271;1016683;-61
2022/03/10 02:13:44;;;;;;;68.60;31.30;;;;;;;1.34;71.62;101528.69;52603;1272;1019078;-61
2022/03/10 02:19:07;;;;;;;65.10;29.00;;;;;;;1.32;71.55;101536.54;52532;1273;1016452;-61
2022/03/10 02:21:39;;;;;;;78.40;31.40;;;;;;;1.32;71.90;101543.52;52724;1271;1015707;-61
2022/03/10 02:24:11;;;;;;;62.50;29.70;;;;;;;1.32;72.10;101545.50;52665;1271;1016202;-61
2022/03/10 02:26:44;;;;;;;66.70;28.10;;;;;;;1.32;72.29;101546.28;52662;1272;1016241;-61
2022/03/10 02:29:16;;;;;;;64.90;29.40;;;;;;;1.33;72.40;101551.32;52654;1271;1016299;-60
2022/03/10 02:31:49;;;;;;;66.20;28.50;;;;;;;1.35;72.27;101553.84;52619;1272;1015965;-60
2022/03/10 02:34:22;;;;;;;59.20;27.50;;;;;;;1.37;72.63;101558.55;52697;1273;1016603;-60
2022/03/10 02:36:54;;;;;;;71.60;30.60;;;;;;;1.38;72.87;101567.78;52674;1271;1016458;-62
2022/03/10 02:39:27;;;;;;;64.80;30.50;;;;;;;1.40;72.79;101572.11;52753;1271;1016403;-61
2022/03/10 02:41:59;;;;;;;70.70;29.90;;;;;;;1.40;72.71;101578.17;52596;1271;1016721;-62
2022/03/10 02:44:32;;;;;;;72.80;33.40;;;;;;;1.41;73.04;101580.06;52630;1271;1016231;-61
2022/03/10 02:47:04;;;;;;;68.80;32.30;;;;;;;1.42;72.93;101583.45;52699;1273;1016699;-63
2022/03/10 02:49:36;;;;;;;66.10;28.80;;;;;;;1.45;73.23;101586.20;52726;1271;1020082;-61
2022/03/10 02:52:09;;;;;;;67.90;29.20;;;;;;;1.47;73.30;101584.95;52636;1271;1016394;-61
2022/03/10 02:54:41;;;;;;;66.10;29.30;;;;;;;1.50;73.55;101583.09;52599;1271;1016618;-61
2022/03/10 02:57:14;;;;;;;59.50;28.70;;;;;;;1.54;73.64;101588.47;52565;1271;1016592;-61
2022/03/10 02:59:46;;;;;;;61.60;27.10;;;;;;;1.57;73.64;101593.67;52781;1271;1019488;-60
2022/03/10 03:02:19;;;;;;;61.90;26.50;;;;;;;1.61;73.62;101596.20;52778;1271;1016292;-61
2022/03/10 03:04:51;;;;;;;63.80;27.80;;;;;;;1.65;73.67;101599.29;52739;1271;1016503;-63
2022/03/10 03:07:24;;;;;;;60.10;26.90;;;;;;;1.69;73.42;101597.27;52576;1272;1016304;-60
2022/03/10 03:09:56;;;;;;;60.90;27.70;;;;;;;1.73;73.68;101601.93;52632;1271;1016382;-60
2022/03/10 03:12:28;;;;;;;57.90;27.20;;;;;;;1.76;73.73;101605.17;52893;1260;1015907;-58
2022/03/10 03:15:00;;;;;;;65.90;26.00;;;;;;;1.76;73.62;101604.61;52576;1271;1015884;-58
2022/03/10 03:17:32;;;;;;;57.60;23.60;;;;;;;1.76;73.48;101608.87;53734;1271;1016473;-61
2022/03/10 03:20:05;;;;;;;55.80;23.80;;;;;;;1.75;73.39;101609.17;52562;1273;1016649;-57
2022/03/10 03:22:38;;;;;;;57.80;25.50;;;;;;;1.73;73.37;101617.20;52607;1273;1016185;-58
2022/03/10 03:25:14;;;;;;;56.80;26.90;;;;;;;1.71;73.28;101623.55;52533;1273;1016621;-58
2022/03/10 03:27:46;;;;;;;64.40;25.30;;;;;;;1.67;73.11;101623.77;52565;1273;1016277;-58
2022/03/10 03:30:18;;;;;;;51.90;24.10;;;;;;;1.66;73.01;101628.71;52577;1273;1016116;-58
2022/03/10 03:32:50;;;;;;;50.00;21.30;;;;;;;1.63;73.18;101634.98;52538;1273;1016191;-57
2022/03/10 03:35:22;;;;;;;48.70;20.80;;;;;;;1.58;73.19;101637.33;52591;1273;1016759;-58
2022/03/10 03:37:55;;;;;;;49.90;21.20;;;;;;;1.55;73.43;101637.52;52792;1273;1015904;-58
2022/03/10 03:40:27;;;;;;;45.60;20.40;;;;;;;1.52;73.31;101643.10;52530;1273;1018879;-58
2022/03/10 03:43:00;;;;;;;43.00;18.60;;;;;;;1.49;73.42;101649.76;52461;1273;1020214;-58
2022/03/10 03:45:32;;;;;;;47.40;20.80;;;;;;;1.46;73.41;101652.02;52533;1273;1016449;-56
2022/03/10 03:48:04;;;;;;;42.50;19.00;;;;;;;1.41;73.60;101653.33;52713;1273;1016046;-58
2022/03/10 03:50:35;;;;;;;45.60;18.80;;;;;;;1.37;73.49;101652.52;52566;1273;1016300;-57
2022/03/10 03:53:07;;;;;;;40.00;19.00;;;;;;;1.35;73.48;101655.95;52511;1273;1016465;-57
2022/03/10 03:55:39;;;;;;;45.00;18.90;;;;;;;1.32;73.17;101659.16;52509;1273;1016398;-58
2022/03/10 03:58:11;;;;;;;43.60;18.10;;;;;;;1.30;73.40;101661.91;52483;1273;1016648;-58
2022/03/10 04:00:43;;;;;;;40.90;17.40;;;;;;;1.29;73.15;101665.89;52465;1272;1015817;-57
2022/03/10 04:03:15;;;;;;;40.90;17.50;;;;;;;1.27;73.17;101669.58;52538;1273;1017538;-56
2022/03/10 04:05:46;;;;;;;38.50;15.20;;;;;;;1.25;73.07;101673.73;52594;1273;1016552;-57
2022/03/10 04:08:21;;;;;;;38.00;16.20;;;;;;;1.22;73.26;101677.79;52549;1273;1016293;-57
2022/03/10 04:10:54;;;;;;;34.10;15.80;;;;;;;1.18;73.26;101679.64;52630;1273;1018126;-56
2022/03/10 04:13:25;;;;;;;40.00;15.70;;;;;;;1.15;73.27;101684.56;52526;1273;1016051;-57
2022/03/10 04:15:57;;;;;;;37.20;16.20;;;;;;;1.11;73.44;101685.79;52646;1273;1016559;-57
2022/03/10 04:18:29;;;;;;;37.30;15.60;;;;;;;1.07;73.22;101689.45;52784;1273;1016551;-58
2022/03/10 04:21:01;;;;;;;35.60;16.60;;;;;;;1.03;73.29;101695.23;52680;1273;1016587;-57
2022/03/10 04:23:33;;;;;;;34.70;15.80;;;;;;;1.00;73.35;101695.90;52546;1271;1016681;-56
2022/03/10 04:26:05;;;;;;;32.00;14.20;;;;;;;0.96;73.15;101695.64;52629;1273;1016611;-56
2022/03/10 04:28:37;;;;;;;33.40;14.20;;;;;;;0.92;73.09;101701.88;52617;1273;1016608;-56
2022/03/10 04:31:09;;;;;;;32.90;13.80;;;;;;;0.88;73.01;101703.02;52577;1273;1016476;-57
2022/03/10 04:33:40;;;;;;;30.60;13.00;;;;;;;0.85;72.85;101707.77;52513;1273;1017329;-56
2022/03/10 04:36:13;;;;;;;31.10;12.40;;;;;;;0.81;72.82;101711.98;52478;1273;1016677;-57
2022/03/10 04:38:45;;;;;;;28.20;11.90;;;;;;;0.78;72.64;101712.34;52572;1272;1016539;-57
2022/03/10 04:41:17;;;;;;;32.00;12.50;;;;;;;0.74;72.69;101717.41;52559;1273;1018244;-56
2022/03/10 04:43:49;;;;;;;30.10;12.00;;;;;;;0.71;72.69;101725.84;52571;1273;1016085;-57
2022/03/10 04:46:22;;;;;;;29.80;11.30;;;;;;;0.70;72.72;101730.00;52551;1273;1016092;-57
2022/03/10 04:48:54;;;;;;;27.00;11.50;;;;;;;0.67;72.64;101730.14;52547;1273;1016682;-57
2022/03/10 04:51:25;;;;;;;27.00;10.60;;;;;;;0.65;72.69;101732.31;52611;1273;1016408;-56
2022/03/10 04:53:57;;;;;;;29.00;11.70;;;;;;;0.62;72.69;101737.79;52503;1273;1016705;-57
2022/03/10 04:56:30;;;;;;;27.20;10.70;;;;;;;0.60;72.63;101742.30;52521;1273;1016499;-57
2022/03/10 04:59:01;;;;;;;25.20;10.80;;;;;;;0.56;72.47;101745.09;52644;1273;1016677;-58
2022/03/10 05:01:33;;;;;;;28.00;11.60;;;;;;;0.53;72.50;101746.45;52531;1272;1016820;-56
2022/03/10 05:04:05;;;;;;;26.10;10.70;;;;;;;0.50;72.39;101753.09;52547;1273;1016789;-57
2022/03/10 05:06:38;;;;;;;30.40;11.30;;;;;;;0.47;72.37;101756.20;52563;1273;1016203;-57
2022/03/10 05:09:09;;;;;;;26.40;11.20;;;;;;;0.43;72.36;101761.72;52515;1273;1016609;-57
2022/03/10 05:11:40;;;;;;;29.00;11.70;;;;;;;0.40;72.45;101767.72;52509;1273;1016029;-55
2022/03/10 05:14:12;;;;;;;25.10;10.10;;;;;;;0.36;72.42;101775.29;52576;1273;1016461;-57
2022/03/10 05:16:44;;;;;;;26.60;10.80;;;;;;;0.32;72.50;101780.48;52591;1273;1016159;-56
2022/03/10 05:19:16;;;;;;;27.50;9.90;;;;;;;0.28;72.49;101782.56;52593;1273;1016466;-56
2022/03/10 05:21:48;;;;;;;28.40;10.80;;;;;;;0.26;72.57;101787.64;52502;1273;1016857;-56
2022/03/10 05:24:19;;;;;;;30.50;11.90;;;;;;;0.24;72.65;101790.83;52475;1273;1016965;-56
2022/03/10 05:26:51;;;;;;;32.00;12.30;;;;;;;0.23;72.60;101791.98;52654;1273;1015807;-56
2022/03/10 05:29:24;;;;;;;30.30;11.10;;;;;;;0.22;72.67;101797.08;52608;1271;1016193;-56
2022/03/10 05:31:57;;;;;;;33.20;11.60;;;;;;;0.22;72.77;101798.32;52674;1273;1016315;-56
2022/03/10 05:34:28;;;;;;;25.60;9.90;;;;;;;0.20;72.65;101804.58;52592;1273;1016452;-56
2022/03/10 05:37:00;;;;;;;30.20;11.70;;;;;;;0.19;72.70;101808.80;52693;1272;1016180;-57
2022/03/10 05:39:32;;;;;;;27.20;10.90;;;;;;;0.18;72.74;101815.78;52465;1273;1016186;-63
2022/03/10 05:42:03;;;;;;;26.20;11.40;;;;;;;0.21;72.82;101817.52;52668;1273;1016238;-63
2022/03/10 05:44:35;;;;;;;30.50;10.60;;;;;;;0.21;72.77;101818.95;53587;1273;1016039;-64
2022/03/10 05:47:09;;;;;;;27.70;9.80;;;;;;;0.22;72.90;101823.36;52735;1273;1016217;-65
2022/03/10 05:49:41;;;;;;;35.60;13.50;;;;;;;0.23;72.73;101822.28;54542;1272;1016212;-63
2022/03/10 05:52:12;;;;;;;38.00;13.90;;;;;;;0.23;72.92;101831.14;54570;1273;1015520;-64
2022/03/10 05:54:44;;;;;;;44.20;16.70;;;;;;;0.24;72.86;101836.57;52902;1273;1016653;-63
2022/03/10 05:57:16;;;;;;;44.40;16.80;;;;;;;0.25;72.81;101837.05;52620;1273;1016532;-63
2022/03/10 05:59:47;;;;;;;44.50;15.50;;;;;;;0.25;72.71;101838.08;52617;1273;1019632;-63
2022/03/10 06:02:19;;;;;;;63.40;30.10;;;;;;;0.24;72.78;101839.15;54585;1271;1015523;-63
2022/03/10 06:04:51;;;;;;;61.80;29.20;;;;;;;0.25;72.76;101846.40;54563;1273;1015854;-63
2022/03/10 06:07:23;;;;;;;57.60;24.90;;;;;;;0.28;72.88;101853.17;54539;1272;1016325;-63
2022/03/10 06:09:55;;;;;;;63.80;26.20;;;;;;;0.29;72.73;101857.05;54577;1272;1016082;-63
2022/03/10 06:12:29;;;;;;;81.80;31.90;;;;;;;0.32;72.80;101855.52;53461;1272;1016412;-62
2022/03/10 06:15:04;;;;;;;98.60;38.50;;;;;;;0.33;72.74;101858.59;52853;1273;1019521;-61
2022/03/10 06:17:37;;;;;;;108.60;42.70;;;;;;;0.35;72.67;101868.91;52702;1273;1015985;-61
2022/03/10 06:20:12;;;;;;;116.90;42.00;;;;;;;0.38;72.69;101874.21;52577;1273;1018609;-62
2022/03/10 06:22:45;;;;;;;95.90;35.60;;;;;;;0.40;72.76;101871.80;52611;1273;1015887;-62
2022/03/10 06:25:17;;;;;;;88.70;33.90;;;;;;;0.44;72.93;101884.18;52674;1273;1016677;-62
2022/03/10 06:27:49;;;;;;;86.00;31.80;;;;;;;0.48;72.80;101883.07;52705;1271;1017131;-62
2022/03/10 06:30:24;;;;;;;53.40;22.10;;;;;;;0.50;72.83;101883.71;52557;1273;1017795;-62
2022/03/10 06:32:57;;;;;;;75.70;28.30;;;;;;;0.51;72.89;101881.15;52733;1273;1019890;-62
2022/03/10 06:35:30;;;;;;;69.00;25.70;;;;;;;0.53;72.87;101884.78;52727;1272;1016590;-63
2022/03/10 06:38:03;;;;;;;59.00;23.30;;;;;;;0.56;73.01;101890.34;52730;1273;1017331;-63
2022/03/10 06:40:36;;;;;;;46.90;18.50;;;;;;;0.58;72.90;101890.20;52656;1273;1016683;-62
2022/03/10 06:43:08;;;;;;;39.60;16.20;;;;;;;0.60;72.89;101893.75;52708;1272;1016595;-63
2022/03/10 06:45:42;;;;;;;40.50;16.00;;;;;;;0.62;72.84;101898.35;52634;1272;1016041;-63
2022/03/10 06:48:15;;;;;;;43.20;16.40;;;;;;;0.64;72.64;101901.75;52598;1273;1016472;-63
2022/03/10 06:50:48;;;;;;;39.80;13.60;;;;;;;0.67;72.64;101906.67;52610;1272;1016560;-62
2022/03/10 06:53:19;;;;;;;42.30;14.30;;;;;;;0.71;72.68;101913.78;52568;1272;1016590;-62
2022/03/10 06:55:51;;;;;;;51.30;16.70;;;;;;;0.73;72.55;101921.44;52597;1273;1016416;-62
2022/03/10 06:58:24;;;;;;;36.80;12.20;;;;;;;0.75;72.46;101923.84;52529;1273;1016694;-61
2022/03/10 07:00:55;;;;;;;39.30;14.40;;;;;;;0.78;72.36;101922.61;52567;1273;1016705;-62
2022/03/10 07:03:27;;;;;;;40.60;14.00;;;;;;;0.82;72.44;101925.33;52598;1273;1016311;-62
2022/03/10 07:06:00;;;;;;;36.20;13.60;;;;;;;0.85;72.17;101923.88;52531;1273;1016402;-62
2022/03/10 07:08:32;;;;;;;38.80;14.10;;;;;;;0.88;72.01;101924.30;52567;1273;1016101;-62
2022/03/10 07:11:03;;;;;;;32.40;11.80;;;;;;;0.92;71.93;101925.77;52602;1273;1015787;-62
2022/03/10 07:13:36;;;;;;;31.60;13.10;;;;;;;0.95;71.85;101925.57;52576;1273;1016324;-62
2022/03/10 07:16:09;;;;;;;30.60;10.70;;;;;;;0.98;71.77;101925.70;52622;1271;1016239;-62
2022/03/10 07:18:41;;;;;;;26.30;9.40;;;;;;;1.02;71.62;101923.46;52542;1273;1016220;-61
2022/03/10 07:21:14;;;;;;;30.60;10.00;;;;;;;1.05;71.17;101930.48;52956;1273;1016378;-62
2022/03/10 07:23:46;;;;;;;36.60;12.80;;;;;;;1.07;70.99;101929.42;52623;1273;1016783;-62
2022/03/10 07:26:21;;;;;;;32.50;11.00;;;;;;;1.09;70.93;101932.28;52776;1273;1016341;-62
2022/03/10 07:28:53;;;;;;;28.90;8.80;;;;;;;1.13;70.83;101933.36;52551;1273;1016148;-62
2022/03/10 07:31:25;;;;;;;29.70;11.30;;;;;;;1.16;70.97;101937.79;52486;1273;1016396;-62
2022/03/10 07:33:56;;;;;;;24.20;7.70;;;;;;;1.21;70.68;101940.77;52565;1273;1017004;-62
2022/03/10 07:36:28;;;;;;;23.30;7.70;;;;;;;1.22;70.47;101945.10;52692;1273;1018337;-62
2022/03/10 07:39:00;;;;;;;22.80;8.00;;;;;;;1.22;70.24;101948.95;52590;1273;1016378;-62
2022/03/10 07:41:32;;;;;;;25.20;9.00;;;;;;;1.24;70.43;101950.00;52646;1273;1016274;-62
2022/03/10 07:44:04;;;;;;;26.60;9.60;;;;;;;1.27;70.24;101944.92;52539;1273;1016097;-62
2022/03/10 07:46:35;;;;;;;36.70;12.90;;;;;;;1.28;70.03;101949.26;52575;1273;1016494;-62
2022/03/10 07:49:09;;;;;;;28.70;9.80;;;;;;;1.31;70.07;101950.25;52538;1273;1019690;-62
2022/03/10 07:51:43;;;;;;;27.80;11.40;;;;;;;1.34;70.07;101954.77;52543;1273;1016449;-62
2022/03/10 07:54:15;;;;;;;29.30;11.00;;;;;;;1.38;69.78;101957.55;52905;1274;1016687;-63
2022/03/10 07:56:48;;;;;;;34.00;12.60;;;;;;;1.38;69.54;101959.45;52687;1271;1016586;-62
2022/03/10 07:59:20;;;;;;;30.50;11.80;;;;;;;1.38;69.46;101958.98;52677;1273;1016383;-63
2022/03/10 08:01:52;;;;;;;48.40;18.20;;;;;;;1.40;69.60;101959.08;52651;1273;1016670;-62
2022/03/10 08:04:24;;;;;;;34.30;12.10;;;;;;;1.43;69.53;101961.63;52524;1273;1015992;-63
2022/03/10 08:06:57;;;;;;;25.30;8.80;;;;;;;1.47;69.53;101967.73;52652;1273;1016238;-63
2022/03/10 08:09:29;;;;;;;35.70;14.00;;;;;;;1.50;69.21;101964.38;52597;1273;1016557;-62
2022/03/10 08:12:02;;;;;;;24.60;9.50;;;;;;;1.51;69.21;101965.58;52617;1273;1017484;-62
2022/03/10 08:14:34;;;;;;;23.30;7.30;;;;;;;1.55;68.90;101970.27;52540;1273;1016848;-62
2022/03/10 08:17:06;;;;;;;21.00;7.10;;;;;;;1.57;68.76;101975.40;52525;1274;1016503;-61
2022/03/10 08:19:38;;;;;;;17.70;6.00;;;;;;;1.59;68.60;101974.56;52532;1274;1016299;-61
2022/03/10 08:22:10;;;;;;;20.20;6.60;;;;;;;1.63;68.32;101966.10;52527;1273;1016100;-62
2022/03/10 08:24:41;;;;;;;17.70;5.90;;;;;;;1.65;68.26;101971.31;52599;1273;1015821;-61
2022/03/10 08:27:15;;;;;;;17.40;5.80;;;;;;;1.67;67.73;101970.95;52584;1271;1016503;-62
2022/03/10 08:29:47;;;;;;;23.40;7.30;;;;;;;1.70;67.31;101968.94;52614;1273;1016647;-61
2022/03/10 08:32:21;;;;;;;16.60;5.40;;;;;;;1.71;66.92;101968.08;52618;1273;1017302;-61
2022/03/10 08:34:53;;;;;;;22.40;7.20;;;;;;;1.72;66.47;101968.72;52514;1273;1015935;-62
2022/03/10 08:37:26;;;;;;;18.60;6.30;;;;;;;1.73;66.61;101966.52;52611;1273;1016547;-62
2022/03/10 08:39:58;;;;;;;17.60;5.80;;;;;;;1.77;66.65;101962.64;52586;1273;1017366;-62
2022/03/10 08:42:30;;;;;;;48.00;16.40;;;;;;;1.83;66.27;101965.84;52586;1273;1016273;-62
2022/03/10 08:45:01;;;;;;;25.80;9.20;;;;;;;1.89;65.91;101969.69;52624;1273;1016587;-62
2022/03/10 08:47:33;;;;;;;21.50;6.40;;;;;;;1.94;65.85;101970.06;52517;1273;1016303;-62
2022/03/10 08:50:06;;;;;;;19.50;6.80;;;;;;;2.00;65.39;101968.05;52568;1273;1018896;-62
2022/03/10 08:52:39;;;;;;;15.50;4.80;;;;;;;2.03;65.00;101971.16;52676;1274;1015927;-62
2022/03/10 08:55:12;;;;;;;14.90;4.20;;;;;;;2.04;64.67;101976.75;52632;1273;1017156;-62
2022/03/10 08:57:44;;;;;;;21.80;7.30;;;;;;;2.05;64.45;101973.78;52630;1273;1016199;-62
2022/03/10 09:00:18;;;;;;;16.90;5.10;;;;;;;2.10;63.92;101980.36;52670;1273;1016246;-62
2022/03/10 09:02:50;;;;;;;11.20;3.60;;;;;;;2.13;63.81;101984.00;52598;1272;1016446;-62
2022/03/10 09:05:23;;;;;;;26.10;7.10;;;;;;;2.18;63.59;101982.63;52675;1273;1015979;-62
2022/03/10 09:07:55;;;;;;;13.50;3.20;;;;;;;2.23;63.53;101983.95;52706;1273;1016410;-62
2022/03/10 09:10:27;;;;;;;15.60;3.70;;;;;;;2.27;63.49;101984.13;52755;1273;1016318;-62
2022/03/10 09:12:59;;;;;;;14.70;3.90;;;;;;;2.31;63.46;101979.36;52755;1271;1016296;-62
2022/03/10 09:15:30;;;;;;;14.50;3.50;;;;;;;2.33;63.03;101982.45;52687;1272;1015704;-62
2022/03/10 09:18:02;;;;;;;12.70;2.90;;;;;;;2.39;63.01;101985.18;52652;1273;1016391;-62
2022/03/10 09:20:35;;;;;;;16.40;4.60;;;;;;;2.44;62.57;101982.07;52559;1272;1018283;-63
2022/03/10 09:23:07;;;;;;;15.10;4.20;;;;;;;2.48;62.34;101982.25;52607;1273;1016622;-62
2022/03/10 09:25:40;;;;;;;13.70;3.60;;;;;;;2.55;62.40;101985.45;52688;1273;1016005;-62
2022/03/10 09:28:13;;;;;;;12.70;3.50;;;;;;;2.58;62.19;101987.13;52597;1273;1016606;-62
2022/03/10 09:30:45;;;;;;;14.50;3.60;;;;;;;2.60;61.69;101985.18;52657;1273;1016135;-62
2022/03/10 09:33:17;;;;;;;12.70;2.90;;;;;;;2.64;61.39;101989.63;52621;1272;1016027;-62
2022/03/10 09:35:48;;;;;;;13.90;3.10;;;;;;;2.68;61.22;101984.77;52658;1273;1016636;-62
2022/03/10 09:38:21;;;;;;;14.00;3.50;;;;;;;2.72;61.22;101989.38;52615;1273;1018336;-62
2022/03/10 09:40:54;;;;;;;12.10;3.00;;;;;;;2.77;60.99;101995.16;52799;1274;1016311;-62
2022/03/10 09:43:31;;;;;;;15.30;3.40;;;;;;;2.79;60.66;101999.42;52612;1274;1016340;-62
2022/03/10 09:46:05;;;;;;;12.10;2.70;;;;;;;2.80;59.92;101998.17;52659;1273;1016558;-58
2022/03/10 09:48:37;;;;;;;15.70;2.80;;;;;;;2.82;60.03;101997.72;52603;1274;1016385;-58
2022/03/10 09:51:11;;;;;;;17.30;3.10;;;;;;;2.81;59.42;101996.29;52748;1274;1016519;-58
2022/03/10 09:53:44;;;;;;;11.30;3.00;;;;;;;2.84;59.53;102000.88;52688;1274;1016471;-58
2022/03/10 09:56:19;;;;;;;10.20;2.90;;;;;;;2.86;59.24;102000.02;52809;1272;1016494;-58
2022/03/10 09:58:51;;;;;;;15.00;3.40;;;;;;;2.85;58.93;101998.84;52732;1275;1016729;-58
2022/03/10 10:01:23;;;;;;;13.50;3.50;;;;;;;2.86;58.98;101996.56;52662;1272;1016075;-57
2022/03/10 10:03:55;;;;;;;17.20;4.50;;;;;;;2.91;58.36;101998.48;52694;1274;1016755;-58
2022/03/10 10:06:26;;;;;;;20.50;7.80;;;;;;;2.97;57.98;101999.70;52570;1275;1018157;-59
2022/03/10 10:08:58;;;;;;;14.10;3.90;;;;;;;3.03;57.68;101999.51;52620;1274;1016126;-58
2022/03/10 10:11:38;;;;;;;14.20;3.80;;;;;;;3.08;57.56;102003.31;52610;1274;1016254;-58
2022/03/10 10:14:10;;;;;;;38.90;13.10;;;;;;;3.11;57.97;102004.05;52695;1274;1018149;-58
2022/03/10 10:16:50;;;;;;;28.10;8.60;;;;;;;3.16;57.62;102006.67;52676;1273;1015921;-58
2022/03/10 10:19:22;;;;;;;25.50;7.00;;;;;;;3.20;57.17;102009.06;52592;1274;1016455;-58
2022/03/10 10:22:14;;;;;;;27.40;6.70;;;;;;;3.21;57.10;102001.11;52570;1274;1016513;-58
2022/03/10 10:24:52;;;;;;;21.60;5.10;;;;;;;3.22;56.64;102008.45;52622;1274;1016446;-58
2022/03/10 10:27:26;;;;;;;16.80;4.20;;;;;;;3.22;55.74;102012.78;52616;1274;1016179;-59
2022/03/10 10:30:00;;;;;;;17.80;4.60;;;;;;;3.22;56.15;102012.23;52590;1274;1015879;-59
2022/03/10 10:32:36;;;;;;;12.50;3.10;;;;;;;3.21;56.36;102010.16;52603;1274;1016691;-58
2022/03/10 10:35:10;;;;;;;15.20;3.50;;;;;;;3.27;56.22;102002.86;52886;1274;1016709;-59
2022/03/10 10:37:44;;;;;;;14.10;3.60;;;;;;;3.34;56.58;102002.73;52689;1273;1016015;-58
2022/03/10 10:40:22;;;;;;;14.50;3.70;;;;;;;3.40;56.44;102010.89;52518;1274;1020097;-59
2022/03/10 10:42:54;;;;;;;14.40;3.90;;;;;;;3.41;55.98;102008.70;52465;1274;1016660;-58
2022/03/10 10:45:33;;;;;;;16.00;3.90;;;;;;;3.42;55.88;102009.01;52513;1274;1020205;-58
2022/03/10 10:48:08;;;;;;;19.60;5.30;;;;;;;3.44;56.14;102005.64;52732;1274;1015918;-59
2022/03/10 10:50:43;;;;;;;16.40;5.10;;;;;;;3.48;56.27;102002.33;52557;1274;1016423;-59
2022/03/10 10:53:32;;;;;;;13.50;4.10;;;;;;;3.50;56.18;102002.98;52681;1274;1016205;-59
2022/03/10 10:56:04;;;;;;;14.30;3.80;;;;;;;3.54;55.61;102004.64;52734;1274;1016575;-58
2022/03/10 10:58:38;;;;;;;15.80;4.60;;;;;;;3.57;55.31;102000.95;52662;1273;1016534;-60
2022/03/10 11:01:26;;;;;;;20.80;5.70;;;;;;;3.64;55.32;101999.56;52696;1274;1016465;-58
2022/03/10 11:03:58;;;;;;;22.30;5.90;;;;;;;3.64;55.67;101996.63;52824;1274;1016168;-60
2022/03/10 11:06:31;;;;;;;18.10;5.50;;;;;;;3.65;55.56;101997.81;52963;1274;1016679;-58
2022/03/10 11:09:04;;;;;;;20.80;6.20;;;;;;;3.68;54.88;102004.15;52862;1274;1016589;-59
2022/03/10 11:11:37;;;;;;;19.00;6.50;;;;;;;3.67;54.61;102004.45;52992;1271;1016111;-58
2022/03/10 11:14:09;;;;;;;20.10;5.70;;;;;;;3.65;54.12;102003.11;52979;1272;1016124;-60
2022/03/10 11:16:44;;;;;;;16.90;4.80;;;;;;;3.62;54.22;101999.63;52943;1274;1015779;-58
2022/03/10 11:19:20;;;;;;;13.00;3.70;;;;;;;3.63;53.59;101994.73;52970;1277;1016019;-59
2022/03/10 11:22:11;;;;;;;16.20;5.00;;;;;;;3.65;53.34;102001.20;52916;1273;1016141;-60
2022/03/10 11:25:03;;;;;;;21.40;7.40;;;;;;;3.71;53.67;102002.19;52931;1275;1015953;-59
2022/03/10 11:27:38;;;;;;;16.10;5.00;;;;;;;3.77;53.19;101998.80;52966;1274;1016510;-58
2022/03/10 11:30:11;;;;;;;12.90;3.30;;;;;;;3.77;52.61;101998.49;52879;1274;1016347;-59
2022/03/10 11:32:43;;;;;;;15.60;4.00;;;;;;;3.75;52.34;101998.64;52993;1274;1016338;-59
2022/03/10 11:35:19;;;;;;;14.30;3.60;;;;;;;3.75;52.30;101998.89;53002;1273;1016651;-58